Clare Christine — V2DT7 — position and weather

sailwx.info

Track history (hours):
 
Tides and Currents Weather Stations Pressure Air Temp Water Temp Dewpoint Dewpoint Depression Visibility Wind Speed Wind Dir Waves Ship Positions

Clare Christine

Last reported at 2015-Sep-05 13:33 UTC. Time now 2015-Sep-05 14:19 UTC.
Position N 50°57' E 001°34'.

Length 89 m; draft 5.8 m.

Type: Cargo ship. MMSI: 305379000.

Date/timePositionNaut miles runAvg speedWind from/ knotsBaromVisibWave heightAir tempDewpointWater temp
2015-Sep-05 13:33N 50°57' E 001°34'7 6.7
2015-Sep-05 12:33N 50°52' E 001°28'79 7.2
2015-Sep-05 01:33N 50°32' W 000°32'1110.9
2015-Sep-05 00:33N 50°38' W 000°46'1110.9
2015-Sep-04 23:33N 50°43' W 001°01'1111.0
2015-Sep-04 22:33N 50°47' W 001°18'8 7.5
2015-Sep-04 21:32N 50°53' W 001°24'2 1.9
2015-Sep-04 20:33N 50°55' W 001°27'1 0.0
2015-Sep-03 20:14N 50°54' W 001°25'6 8.9
2015-Sep-03 19:33N 50°50' W 001°19'8 8.0
2015-Sep-03 18:33N 50°44' W 001°27'7 7.2
2015-Sep-03 17:33N 50°40' W 001°37'8 8.4
2015-Sep-03 16:33N 50°38' W 001°50'7 7.4
2015-Sep-03 15:33N 50°43' W 001°59'0 0.0
2015-Sep-03 14:31N 50°43' W 001°59'0 0.0
2015-Sep-03 13:31N 50°43' W 001°59'0 0.0
2015-Sep-03 12:31N 50°43' W 001°59'0 0.0
2015-Sep-03 11:31N 50°43' W 001°59'0 0.0
2015-Sep-03 10:31N 50°43' W 001°59'0 0.0
2015-Sep-03 09:31N 50°43' W 001°59'0 0.0
2015-Sep-03 08:31N 50°43' W 001°59'0 0.0
2015-Sep-03 07:31N 50°43' W 001°59'0 0.0
2015-Sep-03 06:31N 50°43' W 001°59'0 0.0
2015-Sep-03 05:31N 50°43' W 001°59'0 0.0
2015-Sep-03 04:31N 50°43' W 001°59'0 0.0
2015-Sep-03 03:31N 50°43' W 001°59'0 0.0
2015-Sep-03 02:31N 50°43' W 001°59'0 0.0
2015-Sep-03 01:31N 50°43' W 001°59'0 0.0
2015-Sep-03 00:31N 50°43' W 001°59'0 0.0
2015-Sep-02 23:31N 50°43' W 001°59'0 0.0
2015-Sep-02 22:31N 50°43' W 001°59'0 0.0
2015-Sep-02 21:31N 50°43' W 001°59'0 0.0
2015-Sep-02 20:31N 50°43' W 001°59'0 0.0
2015-Sep-02 19:31N 50°43' W 001°59'0 0.0
2015-Sep-02 18:31N 50°43' W 001°59'0 0.0
2015-Sep-02 17:28N 50°43' W 001°59'0 0.0
2015-Sep-02 16:31N 50°43' W 001°59'0 0.0
2015-Sep-02 15:28N 50°43' W 001°59'0 0.0
2015-Sep-02 14:31N 50°43' W 001°59'0 0.0
2015-Sep-02 13:31N 50°43' W 001°59'0 0.0
2015-Sep-02 12:31N 50°43' W 001°59'0 0.0
2015-Sep-02 11:31N 50°43' W 001°59'0 0.0
2015-Sep-02 10:31N 50°43' W 001°59'0 0.0
2015-Sep-02 09:31N 50°43' W 001°59'0 0.0
2015-Sep-02 08:31N 50°43' W 001°59'0 0.0
2015-Sep-02 07:31N 50°43' W 001°59'0 0.0
2015-Sep-02 06:31N 50°43' W 001°59'0 0.0
2015-Sep-02 05:31N 50°43' W 001°59'0 0.0
2015-Sep-02 04:31N 50°43' W 001°59'0 0.0
2015-Sep-02 03:31N 50°43' W 001°59'0 0.0
2015-Sep-02 02:31N 50°43' W 001°59'0 0.0
2015-Sep-02 01:31N 50°43' W 001°59'0 0.0
2015-Sep-02 00:31N 50°43' W 001°59'0 0.0
2015-Sep-01 23:31N 50°43' W 001°59'0 0.0
2015-Sep-01 22:31N 50°43' W 001°59'0 0.0
2015-Sep-01 21:31N 50°43' W 001°59'0 0.0
2015-Sep-01 20:31N 50°43' W 001°59'0 0.0
2015-Sep-01 19:31N 50°43' W 001°59'0 0.0
2015-Sep-01 18:31N 50°43' W 001°59'0 0.0
2015-Sep-01 17:31N 50°43' W 001°59'0 0.0
2015-Sep-01 16:31N 50°43' W 001°59'0 0.0
2015-Sep-01 15:31N 50°43' W 001°59'0 0.0
2015-Sep-01 14:31N 50°43' W 001°59'0 0.0
2015-Sep-01 13:31N 50°43' W 001°59'0 0.0
2015-Sep-01 12:31N 50°43' W 001°59'0 0.0
2015-Sep-01 11:31N 50°43' W 001°59'0 0.0
2015-Sep-01 10:31N 50°43' W 001°59'0 0.0
2015-Sep-01 09:25N 50°43' W 001°59'0 0.0
2015-Sep-01 08:31N 50°43' W 001°59'0 0.0
2015-Sep-01 07:31N 50°43' W 001°59'0 0.0
2015-Sep-01 06:31N 50°43' W 001°59'0 0.0
2015-Sep-01 05:25N 50°43' W 001°59'0 0.0
2015-Sep-01 04:25N 50°43' W 001°59'0 0.0
2015-Sep-01 03:31N 50°43' W 001°59'0 0.0
2015-Sep-01 02:31N 50°43' W 001°59'0 0.0
2015-Sep-01 01:31N 50°43' W 001°59'0 0.0
2015-Sep-01 00:31N 50°43' W 001°59'0 0.0
2015-Aug-31 23:31N 50°43' W 001°59'0 0.0
2015-Aug-31 22:31N 50°43' W 001°59'0 0.0
2015-Aug-31 21:31N 50°43' W 001°59'0 0.0
2015-Aug-31 20:31N 50°43' W 001°59'0 0.0
2015-Aug-31 19:31N 50°43' W 001°59'0 0.0
2015-Aug-31 18:31N 50°43' W 001°59'0 0.0
2015-Aug-31 17:31N 50°43' W 001°59'0 0.0
2015-Aug-31 16:31N 50°43' W 001°59'0 0.0
2015-Aug-31 15:31N 50°43' W 001°59'0 0.0
2015-Aug-31 14:31N 50°43' W 001°59'0 0.0
2015-Aug-31 13:31N 50°43' W 001°59'0 0.0
2015-Aug-31 12:31N 50°43' W 001°59'0 0.0
2015-Aug-31 11:31N 50°43' W 001°59'0 0.0
2015-Aug-31 10:31N 50°43' W 001°59'0 0.0
2015-Aug-31 09:31N 50°43' W 001°59'0 0.0
2015-Aug-31 08:31N 50°43' W 001°59'0 0.0
2015-Aug-31 07:31N 50°43' W 001°59'0 0.0
2015-Aug-31 06:31N 50°43' W 001°59'0 0.0
2015-Aug-31 05:31N 50°43' W 001°59'0 0.0
2015-Aug-31 04:31N 50°43' W 001°59'0 0.0
2015-Aug-31 03:31N 50°43' W 001°59'0 0.0
2015-Aug-31 02:31N 50°43' W 001°59'0 0.0
2015-Aug-31 01:31N 50°43' W 001°59'0 0.0
2015-Aug-31 00:31N 50°43' W 001°59'0 0.0
2015-Aug-30 23:31N 50°43' W 001°59'0 0.0
2015-Aug-30 22:31N 50°43' W 001°59'0 0.0
2015-Aug-30 21:31N 50°43' W 001°59'0 0.0
2015-Aug-30 20:31N 50°43' W 001°59'0 0.0
2015-Aug-30 19:31N 50°43' W 001°59'0 0.0
2015-Aug-30 18:31N 50°43' W 001°59'0 0.0
2015-Aug-30 17:31N 50°43' W 001°59'0 0.0
2015-Aug-30 16:31N 50°43' W 001°59'0 0.0
2015-Aug-30 15:31N 50°43' W 001°59'0 0.0
2015-Aug-30 14:31N 50°43' W 001°59'0 0.0
2015-Aug-30 13:31N 50°43' W 001°59'0 0.0
2015-Aug-30 12:31N 50°43' W 001°59'0 0.0
2015-Aug-30 11:31N 50°43' W 001°59'0 0.0
2015-Aug-30 10:31N 50°43' W 001°59'0 0.0
2015-Aug-30 09:31N 50°43' W 001°59'0 0.0
2015-Aug-30 08:31N 50°43' W 001°59'0 0.0
2015-Aug-30 07:31N 50°43' W 001°59'0 0.0
2015-Aug-30 06:32N 50°43' W 001°59'0 0.0
2015-Aug-30 05:31N 50°43' W 001°59'0 0.0
2015-Aug-30 04:07N 50°43' W 001°59'0 0.0
2015-Aug-30 03:31N 50°43' W 001°59'0 0.0
2015-Aug-30 02:31N 50°43' W 001°59'0 0.0
2015-Aug-30 01:31N 50°43' W 001°59'0 0.0
2015-Aug-30 00:31N 50°43' W 001°59'0 0.0
2015-Aug-29 23:31N 50°43' W 001°59'0 0.0
2015-Aug-29 22:31N 50°43' W 001°59'0 0.0
2015-Aug-29 21:31N 50°43' W 001°59'0 0.0
2015-Aug-29 20:31N 50°43' W 001°59'0 0.0
2015-Aug-29 19:31N 50°43' W 001°59'0 0.0
2015-Aug-29 18:31N 50°43' W 001°59'0 0.0
2015-Aug-29 17:31N 50°43' W 001°59'0 0.0
2015-Aug-29 16:31N 50°43' W 001°59'0 0.0
2015-Aug-29 15:33N 50°43' W 001°59'0 0.0
2015-Aug-29 14:33N 50°43' W 001°59'0 0.0
2015-Aug-29 13:33N 50°43' W 001°59'0 0.0
2015-Aug-29 12:34N 50°43' W 001°59'5 4.7
2015-Aug-29 11:34N 50°39' W 001°55'1 0.7
2015-Aug-29 10:33N 50°39' W 001°54'0 0.1
2015-Aug-29 09:33N 50°39' W 001°54'0 0.0
2015-Aug-29 08:33N 50°39' W 001°54'0 0.0
2015-Aug-29 07:33N 50°39' W 001°54'0 0.0
2015-Aug-29 06:33N 50°39' W 001°54'0 0.0
2015-Aug-29 05:33N 50°39' W 001°54'0 0.0
2015-Aug-29 04:33N 50°39' W 001°54'0 0.1
2015-Aug-29 03:33N 50°39' W 001°54'2 2.2
2015-Aug-29 02:34N 50°37' W 001°54'169 5.3
2015-Aug-27 18:33N 51°54' W 005°54'6 5.8
2015-Aug-27 17:32N 52°00' W 005°52'6 5.6
2015-Aug-27 16:33N 52°06' W 005°51'6 6.1
2015-Aug-27 15:34N 52°12' W 005°49'8 7.6
2015-Aug-27 14:33N 52°19' W 005°47'9 9.2
2015-Aug-27 13:33N 52°28' W 005°45'96 9.2
2015-Aug-27 03:09N 54°03' W 005°22'5 8.7
2015-Aug-27 02:33N 54°08' W 005°20'8 8.5
2015-Aug-27 01:34N 54°17' W 005°18'8 7.8
2015-Aug-27 00:34N 54°24' W 005°17'8 8.0
2015-Aug-26 23:34N 54°32' W 005°21'7 7.4
2015-Aug-26 22:33N 54°39' W 005°25'6 6.4
2015-Aug-26 21:33N 54°43' W 005°34'8 8.1
2015-Aug-26 20:33N 54°41' W 005°48'6 5.9
2015-Aug-26 19:32N 54°37' W 005°55'0 0.0
2015-Aug-26 18:17N 54°37' W 005°55'0 0.0
2015-Aug-26 17:26N 54°37' W 005°55'0 0.0
2015-Aug-26 16:11N 54°37' W 005°55'0 0.0
2015-Aug-26 15:32N 54°37' W 005°55'0 0.0
2015-Aug-26 14:26N 54°37' W 005°55'  
Track history (hours):
 
Tides and Currents Weather Stations Pressure Air Temp Water Temp Dewpoint Dewpoint Depression Visibility Wind Speed Wind Dir Waves Ship Positions

Clare Christine

Last reported at 2015-Sep-05 13:33 UTC. Time now 2015-Sep-05 14:19 UTC.
Position N 50°57' E 001°34'.

Length 89 m; draft 5.8 m.

Type: Cargo ship. MMSI: 305379000.

Date/timePositionNaut miles runAvg speedWind from/ knotsBaromVisibWave heightAir tempDewpointWater temp
2015-Sep-05 13:33N 50°57' E 001°34'7 6.7
2015-Sep-05 12:33N 50°52' E 001°28'79 7.2
2015-Sep-05 01:33N 50°32' W 000°32'1110.9
2015-Sep-05 00:33N 50°38' W 000°46'1110.9
2015-Sep-04 23:33N 50°43' W 001°01'1111.0
2015-Sep-04 22:33N 50°47' W 001°18'8 7.5
2015-Sep-04 21:32N 50°53' W 001°24'2 1.9
2015-Sep-04 20:33N 50°55' W 001°27'1 0.0
2015-Sep-03 20:14N 50°54' W 001°25'6 8.9
2015-Sep-03 19:33N 50°50' W 001°19'8 8.0
2015-Sep-03 18:33N 50°44' W 001°27'7 7.2
2015-Sep-03 17:33N 50°40' W 001°37'8 8.4
2015-Sep-03 16:33N 50°38' W 001°50'7 7.4
2015-Sep-03 15:33N 50°43' W 001°59'0 0.0
2015-Sep-03 14:31N 50°43' W 001°59'0 0.0
2015-Sep-03 13:31N 50°43' W 001°59'0 0.0
2015-Sep-03 12:31N 50°43' W 001°59'0 0.0
2015-Sep-03 11:31N 50°43' W 001°59'0 0.0
2015-Sep-03 10:31N 50°43' W 001°59'0 0.0
2015-Sep-03 09:31N 50°43' W 001°59'0 0.0
2015-Sep-03 08:31N 50°43' W 001°59'0 0.0
2015-Sep-03 07:31N 50°43' W 001°59'0 0.0
2015-Sep-03 06:31N 50°43' W 001°59'0 0.0
2015-Sep-03 05:31N 50°43' W 001°59'0 0.0
2015-Sep-03 04:31N 50°43' W 001°59'0 0.0
2015-Sep-03 03:31N 50°43' W 001°59'0 0.0
2015-Sep-03 02:31N 50°43' W 001°59'0 0.0
2015-Sep-03 01:31N 50°43' W 001°59'0 0.0
2015-Sep-03 00:31N 50°43' W 001°59'0 0.0
2015-Sep-02 23:31N 50°43' W 001°59'0 0.0
2015-Sep-02 22:31N 50°43' W 001°59'0 0.0
2015-Sep-02 21:31N 50°43' W 001°59'0 0.0
2015-Sep-02 20:31N 50°43' W 001°59'0 0.0
2015-Sep-02 19:31N 50°43' W 001°59'0 0.0
2015-Sep-02 18:31N 50°43' W 001°59'0 0.0
2015-Sep-02 17:28N 50°43' W 001°59'0 0.0
2015-Sep-02 16:31N 50°43' W 001°59'0 0.0
2015-Sep-02 15:28N 50°43' W 001°59'0 0.0
2015-Sep-02 14:31N 50°43' W 001°59'0 0.0
2015-Sep-02 13:31N 50°43' W 001°59'0 0.0
2015-Sep-02 12:31N 50°43' W 001°59'0 0.0
2015-Sep-02 11:31N 50°43' W 001°59'0 0.0
2015-Sep-02 10:31N 50°43' W 001°59'0 0.0
2015-Sep-02 09:31N 50°43' W 001°59'0 0.0
2015-Sep-02 08:31N 50°43' W 001°59'0 0.0
2015-Sep-02 07:31N 50°43' W 001°59'0 0.0
2015-Sep-02 06:31N 50°43' W 001°59'0 0.0
2015-Sep-02 05:31N 50°43' W 001°59'0 0.0
2015-Sep-02 04:31N 50°43' W 001°59'0 0.0
2015-Sep-02 03:31N 50°43' W 001°59'0 0.0
2015-Sep-02 02:31N 50°43' W 001°59'0 0.0
2015-Sep-02 01:31N 50°43' W 001°59'0 0.0
2015-Sep-02 00:31N 50°43' W 001°59'0 0.0
2015-Sep-01 23:31N 50°43' W 001°59'0 0.0
2015-Sep-01 22:31N 50°43' W 001°59'0 0.0
2015-Sep-01 21:31N 50°43' W 001°59'0 0.0
2015-Sep-01 20:31N 50°43' W 001°59'0 0.0
2015-Sep-01 19:31N 50°43' W 001°59'0 0.0
2015-Sep-01 18:31N 50°43' W 001°59'0 0.0
2015-Sep-01 17:31N 50°43' W 001°59'0 0.0
2015-Sep-01 16:31N 50°43' W 001°59'0 0.0
2015-Sep-01 15:31N 50°43' W 001°59'0 0.0
2015-Sep-01 14:31N 50°43' W 001°59'0 0.0
2015-Sep-01 13:31N 50°43' W 001°59'0 0.0
2015-Sep-01 12:31N 50°43' W 001°59'0 0.0
2015-Sep-01 11:31N 50°43' W 001°59'0 0.0
2015-Sep-01 10:31N 50°43' W 001°59'0 0.0
2015-Sep-01 09:25N 50°43' W 001°59'0 0.0
2015-Sep-01 08:31N 50°43' W 001°59'0 0.0
2015-Sep-01 07:31N 50°43' W 001°59'0 0.0
2015-Sep-01 06:31N 50°43' W 001°59'0 0.0
2015-Sep-01 05:25N 50°43' W 001°59'0 0.0
2015-Sep-01 04:25N 50°43' W 001°59'0 0.0
2015-Sep-01 03:31N 50°43' W 001°59'0 0.0
2015-Sep-01 02:31N 50°43' W 001°59'0 0.0
2015-Sep-01 01:31N 50°43' W 001°59'0 0.0
2015-Sep-01 00:31N 50°43' W 001°59'0 0.0
2015-Aug-31 23:31N 50°43' W 001°59'0 0.0
2015-Aug-31 22:31N 50°43' W 001°59'0 0.0
2015-Aug-31 21:31N 50°43' W 001°59'0 0.0
2015-Aug-31 20:31N 50°43' W 001°59'0 0.0
2015-Aug-31 19:31N 50°43' W 001°59'0 0.0
2015-Aug-31 18:31N 50°43' W 001°59'0 0.0
2015-Aug-31 17:31N 50°43' W 001°59'0 0.0
2015-Aug-31 16:31N 50°43' W 001°59'0 0.0
2015-Aug-31 15:31N 50°43' W 001°59'0 0.0
2015-Aug-31 14:31N 50°43' W 001°59'0 0.0
2015-Aug-31 13:31N 50°43' W 001°59'0 0.0
2015-Aug-31 12:31N 50°43' W 001°59'0 0.0
2015-Aug-31 11:31N 50°43' W 001°59'0 0.0
2015-Aug-31 10:31N 50°43' W 001°59'0 0.0
2015-Aug-31 09:31N 50°43' W 001°59'0 0.0
2015-Aug-31 08:31N 50°43' W 001°59'0 0.0
2015-Aug-31 07:31N 50°43' W 001°59'0 0.0
2015-Aug-31 06:31N 50°43' W 001°59'0 0.0
2015-Aug-31 05:31N 50°43' W 001°59'0 0.0
2015-Aug-31 04:31N 50°43' W 001°59'0 0.0
2015-Aug-31 03:31N 50°43' W 001°59'0 0.0
2015-Aug-31 02:31N 50°43' W 001°59'0 0.0
2015-Aug-31 01:31N 50°43' W 001°59'0 0.0
2015-Aug-31 00:31N 50°43' W 001°59'0 0.0
2015-Aug-30 23:31N 50°43' W 001°59'0 0.0
2015-Aug-30 22:31N 50°43' W 001°59'0 0.0
2015-Aug-30 21:31N 50°43' W 001°59'0 0.0
2015-Aug-30 20:31N 50°43' W 001°59'0 0.0
2015-Aug-30 19:31N 50°43' W 001°59'0 0.0
2015-Aug-30 18:31N 50°43' W 001°59'0 0.0
2015-Aug-30 17:31N 50°43' W 001°59'0 0.0
2015-Aug-30 16:31N 50°43' W 001°59'0 0.0
2015-Aug-30 15:31N 50°43' W 001°59'0 0.0
2015-Aug-30 14:31N 50°43' W 001°59'0 0.0
2015-Aug-30 13:31N 50°43' W 001°59'0 0.0
2015-Aug-30 12:31N 50°43' W 001°59'0 0.0
2015-Aug-30 11:31N 50°43' W 001°59'0 0.0
2015-Aug-30 10:31N 50°43' W 001°59'0 0.0
2015-Aug-30 09:31N 50°43' W 001°59'0 0.0
2015-Aug-30 08:31N 50°43' W 001°59'0 0.0
2015-Aug-30 07:31N 50°43' W 001°59'0 0.0
2015-Aug-30 06:32N 50°43' W 001°59'0 0.0
2015-Aug-30 05:31N 50°43' W 001°59'0 0.0
2015-Aug-30 04:07N 50°43' W 001°59'0 0.0
2015-Aug-30 03:31N 50°43' W 001°59'0 0.0
2015-Aug-30 02:31N 50°43' W 001°59'0 0.0
2015-Aug-30 01:31N 50°43' W 001°59'0 0.0
2015-Aug-30 00:31N 50°43' W 001°59'0 0.0
2015-Aug-29 23:31N 50°43' W 001°59'0 0.0
2015-Aug-29 22:31N 50°43' W 001°59'0 0.0
2015-Aug-29 21:31N 50°43' W 001°59'0 0.0
2015-Aug-29 20:31N 50°43' W 001°59'0 0.0
2015-Aug-29 19:31N 50°43' W 001°59'0 0.0
2015-Aug-29 18:31N 50°43' W 001°59'0 0.0
2015-Aug-29 17:31N 50°43' W 001°59'0 0.0
2015-Aug-29 16:31N 50°43' W 001°59'0 0.0
2015-Aug-29 15:33N 50°43' W 001°59'0 0.0
2015-Aug-29 14:33N 50°43' W 001°59'0 0.0
2015-Aug-29 13:33N 50°43' W 001°59'0 0.0
2015-Aug-29 12:34N 50°43' W 001°59'5 4.7
2015-Aug-29 11:34N 50°39' W 001°55'1 0.7
2015-Aug-29 10:33N 50°39' W 001°54'0 0.1
2015-Aug-29 09:33N 50°39' W 001°54'0 0.0
2015-Aug-29 08:33N 50°39' W 001°54'0 0.0
2015-Aug-29 07:33N 50°39' W 001°54'0 0.0
2015-Aug-29 06:33N 50°39' W 001°54'0 0.0
2015-Aug-29 05:33N 50°39' W 001°54'0 0.0
2015-Aug-29 04:33N 50°39' W 001°54'0 0.1
2015-Aug-29 03:33N 50°39' W 001°54'2 2.2
2015-Aug-29 02:34N 50°37' W 001°54'169 5.3
2015-Aug-27 18:33N 51°54' W 005°54'6 5.8
2015-Aug-27 17:32N 52°00' W 005°52'6 5.6
2015-Aug-27 16:33N 52°06' W 005°51'6 6.1
2015-Aug-27 15:34N 52°12' W 005°49'8 7.6
2015-Aug-27 14:33N 52°19' W 005°47'9 9.2
2015-Aug-27 13:33N 52°28' W 005°45'96 9.2
2015-Aug-27 03:09N 54°03' W 005°22'5 8.7
2015-Aug-27 02:33N 54°08' W 005°20'8 8.5
2015-Aug-27 01:34N 54°17' W 005°18'8 7.8
2015-Aug-27 00:34N 54°24' W 005°17'8 8.0
2015-Aug-26 23:34N 54°32' W 005°21'7 7.4
2015-Aug-26 22:33N 54°39' W 005°25'6 6.4
2015-Aug-26 21:33N 54°43' W 005°34'8 8.1
2015-Aug-26 20:33N 54°41' W 005°48'6 5.9
2015-Aug-26 19:32N 54°37' W 005°55'0 0.0
2015-Aug-26 18:17N 54°37' W 005°55'0 0.0
2015-Aug-26 17:26N 54°37' W 005°55'0 0.0
2015-Aug-26 16:11N 54°37' W 005°55'0 0.0
2015-Aug-26 15:32N 54°37' W 005°55'0 0.0
2015-Aug-26 14:26N 54°37' W 005°55'  

Dump ship's entire track history